sensor_id;sensor_type;location;lat;lon;timestamp;pressure;altitude;pressure_sealevel;temperature;humidity
13348;BME280;6743;49.934;9.138;2022-11-20T00:01:56;100070.69;;;2.85;100.00
13348;BME280;6743;49.934;9.138;2022-11-20T00:04:21;100067.22;;;2.84;100.00
13348;BME280;6743;49.934;9.138;2022-11-20T00:06:47;100055.91;;;2.84;100.00
13348;BME280;6743;49.934;9.138;2022-11-20T00:09:13;100052.72;;;2.80;100.00
13348;BME280;6743;49.934;9.138;2022-11-20T00:11:40;100042.25;;;2.80;100.00
13348;BME280;6743;49.934;9.138;2022-11-20T00:14:06;100057.13;;;2.80;100.00
13348;BME280;6743;49.934;9.138;2022-11-20T00:16:32;100047.47;;;2.80;100.00
13348;BME280;6743;49.934;9.138;2022-11-20T00:18:59;100036.06;;;2.81;100.00
13348;BME280;6743;49.934;9.138;2022-11-20T00:21:26;100040.47;;;2.81;100.00
13348;BME280;6743;49.934;9.138;2022-11-20T00:23:54;100045.09;;;2.77;100.00
13348;BME280;6743;49.934;9.138;2022-11-20T00:26:22;100052.00;;;2.78;100.00
13348;BME280;6743;49.934;9.138;2022-11-20T00:28:50;100044.28;;;2.76;100.00
13348;BME280;6743;49.934;9.138;2022-11-20T00:31:17;100052.16;;;2.76;100.00
13348;BME280;6743;49.934;9.138;2022-11-20T00:33:44;100038.22;;;2.76;100.00
13348;BME280;6743;49.934;9.138;2022-11-20T00:36:12;100029.75;;;2.72;100.00
13348;BME280;6743;49.934;9.138;2022-11-20T00:38:38;100040.09;;;2.74;100.00
13348;BME280;6743;49.934;9.138;2022-11-20T00:41:07;100029.50;;;2.75;100.00
13348;BME280;6743;49.934;9.138;2022-11-20T00:43:34;100027.97;;;2.73;100.00
13348;BME280;6743;49.934;9.138;2022-11-20T00:46:02;100035.44;;;2.77;100.00
13348;BME280;6743;49.934;9.138;2022-11-20T00:48:28;100046.75;;;2.78;100.00
13348;BME280;6743;49.934;9.138;2022-11-20T00:50:55;100028.19;;;2.70;100.00
13348;BME280;6743;49.934;9.138;2022-11-20T00:53:21;100030.22;;;2.77;100.00
13348;BME280;6743;49.934;9.138;2022-11-20T00:55:58;100029.38;;;2.77;100.00
13348;BME280;6743;49.934;9.138;2022-11-20T00:58:28;100035.69;;;2.86;100.00
13348;BME280;6743;49.934;9.138;2022-11-20T01:00:59;100032.12;;;2.87;100.00
13348;BME280;6743;49.934;9.138;2022-11-20T01:03:26;100037.13;;;2.90;100.00
13348;BME280;6743;49.934;9.138;2022-11-20T01:05:52;100039.38;;;2.94;100.00
13348;BME280;6743;49.934;9.138;2022-11-20T01:08:18;100030.91;;;2.91;100.00
13348;BME280;6743;49.934;9.138;2022-11-20T01:10:44;100036.75;;;2.94;100.00
13348;BME280;6743;49.934;9.138;2022-11-20T01:13:10;100032.72;;;2.90;100.00
13348;BME280;6743;49.934;9.138;2022-11-20T01:15:54;100034.34;;;2.91;100.00
13348;BME280;6743;49.934;9.138;2022-11-20T01:18:20;100041.16;;;2.94;100.00
13348;BME280;6743;49.934;9.138;2022-11-20T01:20:47;100039.47;;;2.93;100.00
13348;BME280;6743;49.934;9.138;2022-11-20T01:23:13;100040.31;;;2.93;100.00
13348;BME280;6743;49.934;9.138;2022-11-20T01:25:39;100043.06;;;2.92;100.00
13348;BME280;6743;49.934;9.138;2022-11-20T01:28:06;100034.50;;;2.90;100.00
13348;BME280;6743;49.934;9.138;2022-11-20T01:30:32;100032.94;;;2.87;100.00
13348;BME280;6743;49.934;9.138;2022-11-20T01:32:58;100034.38;;;2.80;100.00
13348;BME280;6743;49.934;9.138;2022-11-20T01:35:24;100031.75;;;2.80;100.00
13348;BME280;6743;49.934;9.138;2022-11-20T01:37:50;100012.72;;;2.67;100.00
13348;BME280;6743;49.934;9.138;2022-11-20T01:40:16;100033.09;;;2.74;100.00
13348;BME280;6743;49.934;9.138;2022-11-20T01:42:47;100027.25;;;2.71;100.00
13348;BME280;6743;49.934;9.138;2022-11-20T01:45:56;100020.47;;;2.68;100.00
13348;BME280;6743;49.934;9.138;2022-11-20T01:48:23;100026.19;;;2.73;100.00
13348;BME280;6743;49.934;9.138;2022-11-20T01:50:51;100015.72;;;2.62;100.00
13348;BME280;6743;49.934;9.138;2022-11-20T01:53:21;100023.78;;;2.70;100.00
13348;BME280;6743;49.934;9.138;2022-11-20T01:55:53;100023.09;;;2.68;100.00
13348;BME280;6743;49.934;9.138;2022-11-20T01:58:27;100025.00;;;2.66;100.00
13348;BME280;6743;49.934;9.138;2022-11-20T02:00:54;100020.81;;;2.64;100.00
13348;BME280;6743;49.934;9.138;2022-11-20T02:03:20;100023.56;;;2.62;100.00
13348;BME280;6743;49.934;9.138;2022-11-20T02:05:51;100025.22;;;2.63;100.00
13348;BME280;6743;49.934;9.138;2022-11-20T02:08:19;100014.75;;;2.63;100.00
13348;BME280;6743;49.934;9.138;2022-11-20T02:10:45;100015.09;;;2.70;100.00
13348;BME280;6743;49.934;9.138;2022-11-20T02:13:11;100022.94;;;2.70;100.00
13348;BME280;6743;49.934;9.138;2022-11-20T02:15:55;100019.53;;;2.69;100.00
13348;BME280;6743;49.934;9.138;2022-11-20T02:18:21;100020.69;;;2.65;100.00
13348;BME280;6743;49.934;9.138;2022-11-20T02:20:52;100009.50;;;2.63;100.00
13348;BME280;6743;49.934;9.138;2022-11-20T02:23:22;100007.88;;;2.62;100.00
13348;BME280;6743;49.934;9.138;2022-11-20T02:25:51;100011.53;;;2.60;100.00
13348;BME280;6743;49.934;9.138;2022-11-20T02:28:18;100017.63;;;2.60;100.00
13348;BME280;6743;49.934;9.138;2022-11-20T02:30:44;100015.12;;;2.59;100.00
13348;BME280;6743;49.934;9.138;2022-11-20T02:33:10;100009.87;;;2.59;100.00
13348;BME280;6743;49.934;9.138;2022-11-20T02:35:42;100010.72;;;2.59;100.00
13348;BME280;6743;49.934;9.138;2022-11-20T02:38:12;99995.94;;;2.58;100.00
13348;BME280;6743;49.934;9.138;2022-11-20T02:40:38;99992.38;;;2.59;100.00
13348;BME280;6743;49.934;9.138;2022-11-20T02:43:05;99991.44;;;2.60;100.00
13348;BME280;6743;49.934;9.138;2022-11-20T02:45:32;99999.50;;;2.57;100.00
13348;BME280;6743;49.934;9.138;2022-11-20T02:47:58;99994.41;;;2.56;100.00
13348;BME280;6743;49.934;9.138;2022-11-20T02:50:24;99987.25;;;2.58;100.00
13348;BME280;6743;49.934;9.138;2022-11-20T02:52:49;99992.25;;;2.61;100.00
13348;BME280;6743;49.934;9.138;2022-11-20T02:55:16;99996.41;;;2.63;100.00
13348;BME280;6743;49.934;9.138;2022-11-20T02:57:42;99995.22;;;2.67;100.00
13348;BME280;6743;49.934;9.138;2022-11-20T03:00:10;99980.00;;;2.61;100.00
13348;BME280;6743;49.934;9.138;2022-11-20T03:02:36;99985.72;;;2.66;100.00
13348;BME280;6743;49.934;9.138;2022-11-20T03:05:02;99983.09;;;2.66;100.00
13348;BME280;6743;49.934;9.138;2022-11-20T03:07:28;99986.78;;;2.64;100.00
13348;BME280;6743;49.934;9.138;2022-11-20T03:09:54;99982.38;;;2.64;100.00
13348;BME280;6743;49.934;9.138;2022-11-20T03:12:20;99975.34;;;2.65;100.00
13348;BME280;6743;49.934;9.138;2022-11-20T03:14:46;99982.38;;;2.64;100.00
13348;BME280;6743;49.934;9.138;2022-11-20T03:17:22;99984.03;;;2.65;100.00
13348;BME280;6743;49.934;9.138;2022-11-20T03:19:48;99977.13;;;2.64;100.00
13348;BME280;6743;49.934;9.138;2022-11-20T03:22:14;99981.53;;;2.64;100.00
13348;BME280;6743;49.934;9.138;2022-11-20T03:24:50;99972.16;;;2.61;100.00
13348;BME280;6743;49.934;9.138;2022-11-20T03:27:16;99970.94;;;2.65;100.00
13348;BME280;6743;49.934;9.138;2022-11-20T03:29:42;99966.66;;;2.64;100.00
13348;BME280;6743;49.934;9.138;2022-11-20T03:32:08;99973.56;;;2.65;100.00
13348;BME280;6743;49.934;9.138;2022-11-20T03:34:35;99983.09;;;2.66;100.00
13348;BME280;6743;49.934;9.138;2022-11-20T03:37:01;99984.03;;;2.65;100.00
13348;BME280;6743;49.934;9.138;2022-11-20T03:39:27;99968.31;;;2.65;100.00
13348;BME280;6743;49.934;9.138;2022-11-20T03:41:53;99981.31;;;2.67;100.00
13348;BME280;6743;49.934;9.138;2022-11-20T03:44:21;99954.53;;;2.52;100.00
13348;BME280;6743;49.934;9.138;2022-11-20T03:46:47;99981.31;;;2.67;100.00
13348;BME280;6743;49.934;9.138;2022-11-20T03:49:13;99978.69;;;2.67;100.00
13348;BME280;6743;49.934;9.138;2022-11-20T03:51:40;99975.56;;;2.73;100.00
13348;BME280;6743;49.934;9.138;2022-11-20T03:54:07;99955.47;;;2.73;100.00
13348;BME280;6743;49.934;9.138;2022-11-20T03:56:35;99960.81;;;2.72;100.00
13348;BME280;6743;49.934;9.138;2022-11-20T03:59:02;99963.31;;;2.73;100.00
13348;BME280;6743;49.934;9.138;2022-11-20T04:01:30;99966.78;;;2.74;100.00
13348;BME280;6743;49.934;9.138;2022-11-20T04:03:56;99972.00;;;2.74;100.00
13348;BME280;6743;49.934;9.138;2022-11-20T04:06:25;99966.78;;;2.74;100.00
13348;BME280;6743;49.934;9.138;2022-11-20T04:08:53;99963.87;;;2.77;100.00
13348;BME280;6743;49.934;9.138;2022-11-20T04:11:21;99963.78;;;2.78;100.00
13348;BME280;6743;49.934;9.138;2022-11-20T04:13:49;99947.13;;;2.68;100.00
13348;BME280;6743;49.934;9.138;2022-11-20T04:16:16;99970.69;;;2.80;100.00
13348;BME280;6743;49.934;9.138;2022-11-20T04:18:42;99957.34;;;2.71;100.00
13348;BME280;6743;49.934;9.138;2022-11-20T04:21:09;99964.38;;;2.82;100.00
13348;BME280;6743;49.934;9.138;2022-11-20T04:23:35;99970.44;;;2.83;100.00
13348;BME280;6743;49.934;9.138;2022-11-20T04:26:03;99974.03;;;2.82;100.00
13348;BME280;6743;49.934;9.138;2022-11-20T04:28:29;99969.84;;;2.79;100.00
13348;BME280;6743;49.934;9.138;2022-11-20T04:31:01;99966.38;;;2.78;100.00
13348;BME280;6743;49.934;9.138;2022-11-20T04:33:27;99956.63;;;2.81;100.00
13348;BME280;6743;49.934;9.138;2022-11-20T04:35:54;99960.91;;;2.82;100.00
13348;BME280;6743;49.934;9.138;2022-11-20T04:38:20;99950.31;;;2.83;100.00
13348;BME280;6743;49.934;9.138;2022-11-20T04:40:45;99956.37;;;2.84;100.00
13348;BME280;6743;49.934;9.138;2022-11-20T04:43:12;99958.03;;;2.85;100.00
13348;BME280;6743;49.934;9.138;2022-11-20T04:45:38;99957.91;;;2.86;100.00
13348;BME280;6743;49.934;9.138;2022-11-20T04:48:05;99953.63;;;2.85;100.00
13348;BME280;6743;49.934;9.138;2022-11-20T04:50:31;99947.56;;;2.85;100.00
13348;BME280;6743;49.934;9.138;2022-11-20T04:52:56;99960.66;;;2.85;100.00
13348;BME280;6743;49.934;9.138;2022-11-20T04:55:22;99959.72;;;2.86;100.00
13348;BME280;6743;49.934;9.138;2022-11-20T04:57:49;99950.78;;;2.88;100.00
13348;BME280;6743;49.934;9.138;2022-11-20T05:00:17;99956.75;;;2.90;100.00
13348;BME280;6743;49.934;9.138;2022-11-20T05:02:44;99954.25;;;2.89;100.00
13348;BME280;6743;49.934;9.138;2022-11-20T05:05:10;99936.25;;;2.84;100.00
13348;BME280;6743;49.934;9.138;2022-11-20T05:07:36;99928.88;;;2.89;100.00
13348;BME280;6743;49.934;9.138;2022-11-20T05:10:02;99924.81;;;2.85;100.00
13348;BME280;6743;49.934;9.138;2022-11-20T05:12:28;99934.78;;;2.91;100.00
13348;BME280;6743;49.934;9.138;2022-11-20T05:14:54;99911.72;;;2.85;100.00
13348;BME280;6743;49.934;9.138;2022-11-20T05:17:21;99911.09;;;2.93;100.00
13348;BME280;6743;49.934;9.138;2022-11-20T05:19:48;99894.34;;;2.84;100.00
13348;BME280;6743;49.934;9.138;2022-11-20T05:22:15;99904.91;;;2.94;100.00
13348;BME280;6743;49.934;9.138;2022-11-20T05:24:41;99891.47;;;2.87;100.00
13348;BME280;6743;49.934;9.138;2022-11-20T05:27:07;99901.56;;;2.92;100.00
13348;BME280;6743;49.934;9.138;2022-11-20T05:29:33;99911.09;;;2.93;100.00
13348;BME280;6743;49.934;9.138;2022-11-20T05:31:59;99918.84;;;2.94;100.00
13348;BME280;6743;49.934;9.138;2022-11-20T05:34:25;99926.72;;;2.94;100.00
13348;BME280;6743;49.934;9.138;2022-11-20T05:36:51;99935.41;;;2.95;100.00
13348;BME280;6743;49.934;9.138;2022-11-20T05:39:17;99924.81;;;2.85;100.00
13348;BME280;6743;49.934;9.138;2022-11-20T05:41:43;99929.31;;;2.94;100.00
13348;BME280;6743;49.934;9.138;2022-11-20T05:44:10;99930.16;;;2.95;100.00
13348;BME280;6743;49.934;9.138;2022-11-20T05:46:36;99931.09;;;2.94;100.00
13348;BME280;6743;49.934;9.138;2022-11-20T05:49:02;99931.94;;;2.94;100.00
13348;BME280;6743;49.934;9.138;2022-11-20T05:51:29;99935.41;;;2.95;100.00
13348;BME280;6743;49.934;9.138;2022-11-20T05:53:56;99920.50;;;2.95;100.00
13348;BME280;6743;49.934;9.138;2022-11-20T05:56:23;99918.72;;;2.96;100.00
13348;BME280;6743;49.934;9.138;2022-11-20T05:58:49;99921.22;;;2.97;100.00
13348;BME280;6743;49.934;9.138;2022-11-20T06:01:17;99920.25;;;2.98;100.00
13348;BME280;6743;49.934;9.138;2022-11-20T06:03:44;99915.84;;;2.99;100.00
13348;BME280;6743;49.934;9.138;2022-11-20T06:06:13;99915.84;;;2.99;100.00
13348;BME280;6743;49.934;9.138;2022-11-20T06:08:40;99918.59;;;2.97;100.00
13348;BME280;6743;49.934;9.138;2022-11-20T06:11:07;99912.53;;;2.97;100.00
13348;BME280;6743;49.934;9.138;2022-11-20T06:13:34;99904.47;;;2.89;100.00
13348;BME280;6743;49.934;9.138;2022-11-20T06:16:00;99920.13;;;3.00;100.00
13348;BME280;6743;49.934;9.138;2022-11-20T06:18:28;99920.13;;;3.00;100.00
13348;BME280;6743;49.934;9.138;2022-11-20T06:20:59;99926.19;;;3.00;100.00
13348;BME280;6743;49.934;9.138;2022-11-20T06:23:28;99925.37;;;3.00;100.00
13348;BME280;6743;49.934;9.138;2022-11-20T06:25:54;99927.88;;;3.01;100.00
13348;BME280;6743;49.934;9.138;2022-11-20T06:28:20;99923.47;;;3.02;100.00
13348;BME280;6743;49.934;9.138;2022-11-20T06:30:47;99930.50;;;3.01;100.00
13348;BME280;6743;49.934;9.138;2022-11-20T06:33:13;99919.19;;;3.01;100.00
13348;BME280;6743;49.934;9.138;2022-11-20T06:35:39;99919.06;;;3.02;100.00
13348;BME280;6743;49.934;9.138;2022-11-20T06:38:05;99932.03;;;3.04;100.00
13348;BME280;6743;49.934;9.138;2022-11-20T06:40:31;99924.87;;;3.06;100.00
13348;BME280;6743;49.934;9.138;2022-11-20T06:42:57;99920.47;;;3.06;100.00
13348;BME280;6743;49.934;9.138;2022-11-20T06:45:23;99925.69;;;3.06;100.00
13348;BME280;6743;49.934;9.138;2022-11-20T06:47:49;99934.41;;;3.07;100.00
13348;BME280;6743;49.934;9.138;2022-11-20T06:50:15;99919.28;;;2.99;100.00
13348;BME280;6743;49.934;9.138;2022-11-20T06:52:41;99940.34;;;3.09;100.00
13348;BME280;6743;49.934;9.138;2022-11-20T06:55:08;99940.34;;;3.09;100.00
13348;BME280;6743;49.934;9.138;2022-11-20T06:57:34;99923.59;;;3.00;100.00
13348;BME280;6743;49.934;9.138;2022-11-20T07:00:00;99927.97;;;3.11;100.00
13348;BME280;6743;49.934;9.138;2022-11-20T07:02:26;99925.19;;;3.12;100.00
13348;BME280;6743;49.934;9.138;2022-11-20T07:04:52;99925.06;;;3.14;100.00
13348;BME280;6743;49.934;9.138;2022-11-20T07:07:18;99932.94;;;3.14;100.00
13348;BME280;6743;49.934;9.138;2022-11-20T07:09:44;99944.38;;;3.13;100.00
13348;BME280;6743;49.934;9.138;2022-11-20T07:12:10;99941.75;;;3.13;100.00
13348;BME280;6743;49.934;9.138;2022-11-20T07:14:36;99947.00;;;3.13;100.00
13348;BME280;6743;49.934;9.138;2022-11-20T07:17:03;99943.44;;;3.14;100.00
13348;BME280;6743;49.934;9.138;2022-11-20T07:19:29;99938.06;;;3.15;100.00
13348;BME280;6743;49.934;9.138;2022-11-20T07:21:55;99938.91;;;3.16;100.00
13348;BME280;6743;49.934;9.138;2022-11-20T07:24:21;99942.22;;;3.18;100.00
13348;BME280;6743;49.934;9.138;2022-11-20T07:26:47;99939.72;;;3.16;100.00
13348;BME280;6743;49.934;9.138;2022-11-20T07:29:14;99939.72;;;3.16;100.00
13348;BME280;6743;49.934;9.138;2022-11-20T07:31:41;99942.34;;;3.16;100.00
13348;BME280;6743;49.934;9.138;2022-11-20T07:34:08;99954.50;;;3.17;100.00
13348;BME280;6743;49.934;9.138;2022-11-20T07:36:34;99938.78;;;3.17;100.00
13348;BME280;6743;49.934;9.138;2022-11-20T07:39:00;99936.84;;;3.20;100.00
13348;BME280;6743;49.934;9.138;2022-11-20T07:41:26;99940.28;;;3.20;100.00
13348;BME280;6743;49.934;9.138;2022-11-20T07:43:54;99940.19;;;3.22;100.00
13348;BME280;6743;49.934;9.138;2022-11-20T07:46:20;99939.34;;;3.21;100.00
13348;BME280;6743;49.934;9.138;2022-11-20T07:48:46;99932.19;;;3.23;100.00
13348;BME280;6743;49.934;9.138;2022-11-20T07:51:12;99934.69;;;3.25;100.00
13348;BME280;6743;49.934;9.138;2022-11-20T07:53:39;99928.47;;;3.26;100.00
13348;BME280;6743;49.934;9.138;2022-11-20T07:56:05;99920.59;;;3.26;100.00
13348;BME280;6743;49.934;9.138;2022-11-20T07:58:32;99925.84;;;3.26;100.00
13348;BME280;6743;49.934;9.138;2022-11-20T08:01:03;99919.66;;;3.27;100.00
13348;BME280;6743;49.934;9.138;2022-11-20T08:03:29;99924.78;;;3.28;100.00
13348;BME280;6743;49.934;9.138;2022-11-20T08:05:59;99920.88;;;3.23;100.00
13348;BME280;6743;49.934;9.138;2022-11-20T08:08:27;99946.34;;;3.32;100.00
13348;BME280;6743;49.934;9.138;2022-11-20T08:10:53;99932.25;;;3.33;100.00
13348;BME280;6743;49.934;9.138;2022-11-20T08:13:41;99934.63;;;3.36;100.00
13348;BME280;6743;49.934;9.138;2022-11-20T08:16:26;99941.44;;;3.38;100.00
13348;BME280;6743;49.934;9.138;2022-11-20T08:18:52;99938.66;;;3.40;100.00
13348;BME280;6743;49.934;9.138;2022-11-20T08:21:19;99935.91;;;3.41;100.00
13348;BME280;6743;49.934;9.138;2022-11-20T08:23:47;99933.81;;;3.35;100.00
13348;BME280;6743;49.934;9.138;2022-11-20T08:26:13;99943.06;;;3.39;100.00
13348;BME280;6743;49.934;9.138;2022-11-20T08:28:39;99950.94;;;3.39;100.00
13348;BME280;6743;49.934;9.138;2022-11-20T08:31:05;99964.03;;;3.39;100.00
13348;BME280;6743;49.934;9.138;2022-11-20T08:33:32;99950.28;;;3.26;100.00
13348;BME280;6743;49.934;9.138;2022-11-20T08:35:59;99978.13;;;3.38;100.00
13348;BME280;6743;49.934;9.138;2022-11-20T08:38:27;99979.78;;;3.39;100.00
13348;BME280;6743;49.934;9.138;2022-11-20T08:40:56;99989.31;;;3.40;100.00
13348;BME280;6743;49.934;9.138;2022-11-20T08:43:41;99991.09;;;3.40;100.00
13348;BME280;6743;49.934;9.138;2022-11-20T08:46:07;99982.53;;;3.38;100.00
13348;BME280;6743;49.934;9.138;2022-11-20T08:48:33;99983.22;;;3.40;100.00
13348;BME280;6743;49.934;9.138;2022-11-20T08:51:00;99977.03;;;3.41;100.00
13348;BME280;6743;49.934;9.138;2022-11-20T08:53:27;99974.28;;;3.42;100.00
13348;BME280;6743;49.934;9.138;2022-11-20T08:55:54;99977.75;;;3.43;100.00
13348;BME280;6743;49.934;9.138;2022-11-20T08:58:21;99975.56;;;3.48;100.00
13348;BME280;6743;49.934;9.138;2022-11-20T09:00:48;99978.91;;;3.50;100.00
13348;BME280;6743;49.934;9.138;2022-11-20T09:03:14;99977.94;;;3.51;100.00
13348;BME280;6743;49.934;9.138;2022-11-20T09:05:42;99971.59;;;3.53;100.00
13348;BME280;6743;49.934;9.138;2022-11-20T09:08:09;99980.91;;;3.58;100.00
13348;BME280;6743;49.934;9.138;2022-11-20T09:10:38;99975.53;;;3.59;100.00
13348;BME280;6743;49.934;9.138;2022-11-20T09:13:06;99980.50;;;3.62;100.00
13348;BME280;6743;49.934;9.138;2022-11-20T09:15:34;99970.72;;;3.64;100.00
13348;BME280;6743;49.934;9.138;2022-11-20T09:18:05;99967.28;;;3.64;100.00
13348;BME280;6743;49.934;9.138;2022-11-20T09:20:31;99975.59;;;3.69;100.00
13348;BME280;6743;49.934;9.138;2022-11-20T09:22:57;99971.88;;;3.71;100.00
13348;BME280;6743;49.934;9.138;2022-11-20T09:25:24;99974.12;;;3.76;100.00
13348;BME280;6743;49.934;9.138;2022-11-20T09:27:55;99974.81;;;3.78;100.00
13348;BME280;6743;49.934;9.138;2022-11-20T09:30:21;99978.72;;;3.83;100.00
13348;BME280;6743;49.934;9.138;2022-11-20T09:32:51;99979.56;;;3.84;100.00
13348;BME280;6743;49.934;9.138;2022-11-20T09:35:18;99978.59;;;3.85;100.00
13348;BME280;6743;49.934;9.138;2022-11-20T09:37:44;99977.75;;;3.84;100.00
13348;BME280;6743;49.934;9.138;2022-11-20T09:40:19;99987.75;;;3.90;100.00
13348;BME280;6743;49.934;9.138;2022-11-20T09:42:52;99977.97;;;3.92;100.00
13348;BME280;6743;49.934;9.138;2022-11-20T09:45:35;99974.38;;;3.93;100.00
13348;BME280;6743;49.934;9.138;2022-11-20T09:48:15;99980.63;;;4.02;100.00
13348;BME280;6743;49.934;9.138;2022-11-20T09:50:49;99978.47;;;4.07;100.00
13348;BME280;6743;49.934;9.138;2022-11-20T09:53:25;99981.50;;;4.12;100.00
13348;BME280;6743;49.934;9.138;2022-11-20T09:55:55;99976.00;;;4.15;100.00
13348;BME280;6743;49.934;9.138;2022-11-20T09:58:28;99969.78;;;4.16;100.00
13348;BME280;6743;49.934;9.138;2022-11-20T10:01:01;99971.44;;;4.17;100.00
13348;BME280;6743;49.934;9.138;2022-11-20T10:03:37;99975.63;;;4.20;100.00
13348;BME280;6743;49.934;9.138;2022-11-20T10:06:09;99981.94;;;4.17;100.00
13348;BME280;6743;49.934;9.138;2022-11-20T10:08:41;99979.19;;;4.19;100.00
13348;BME280;6743;49.934;9.138;2022-11-20T10:11:14;99987.91;;;4.19;100.00
13348;BME280;6743;49.934;9.138;2022-11-20T10:13:49;99977.53;;;4.18;100.00
13348;BME280;6743;49.934;9.138;2022-11-20T10:16:24;99992.63;;;4.25;100.00
13348;BME280;6743;49.934;9.138;2022-11-20T10:19:03;99977.00;;;4.24;100.00
13348;BME280;6743;49.934;9.138;2022-11-20T10:21:52;99970.09;;;4.23;100.00
13348;BME280;6743;49.934;9.138;2022-11-20T10:24:43;99970.63;;;4.17;100.00
13348;BME280;6743;49.934;9.138;2022-11-20T10:27:21;99976.28;;;4.22;100.00
13348;BME280;6743;49.934;9.138;2022-11-20T10:30:00;99983.22;;;4.23;100.00
13348;BME280;6743;49.934;9.138;2022-11-20T10:32:32;99974.25;;;4.25;100.00
13348;BME280;6743;49.934;9.138;2022-11-20T10:35:02;99971.22;;;4.30;100.00
13348;BME280;6743;49.934;9.138;2022-11-20T10:37:31;99974.44;;;4.33;100.00
13348;BME280;6743;49.934;9.138;2022-11-20T10:40:04;99959.75;;;4.31;100.00
13348;BME280;6743;49.934;9.138;2022-11-20T10:42:37;99972.63;;;4.34;100.00
13348;BME280;6743;49.934;9.138;2022-11-20T10:45:15;99966.56;;;4.33;100.00
13348;BME280;6743;49.934;9.138;2022-11-20T10:47:46;99970.37;;;4.29;100.00
13348;BME280;6743;49.934;9.138;2022-11-20T10:50:17;99967.50;;;4.32;100.00
13348;BME280;6743;49.934;9.138;2022-11-20T10:52:52;99967.25;;;4.35;100.00
13348;BME280;6743;49.934;9.138;2022-11-20T10:55:30;99969.31;;;4.32;100.00
13348;BME280;6743;49.934;9.138;2022-11-20T10:58:04;99969.31;;;4.32;100.00
13348;BME280;6743;49.934;9.138;2022-11-20T11:00:35;99958.81;;;4.32;100.00
13348;BME280;6743;49.934;9.138;2022-11-20T11:03:01;99962.97;;;4.34;100.00
13348;BME280;6743;49.934;9.138;2022-11-20T11:05:36;99952.84;;;4.30;100.00
13348;BME280;6743;49.934;9.138;2022-11-20T11:08:10;99961.97;;;4.26;100.00
13348;BME280;6743;49.934;9.138;2022-11-20T11:10:46;99965.53;;;4.25;100.00
13348;BME280;6743;49.934;9.138;2022-11-20T11:13:23;99951.41;;;4.16;100.00
13348;BME280;6743;49.934;9.138;2022-11-20T11:15:52;99956.84;;;4.24;100.00
13348;BME280;6743;49.934;9.138;2022-11-20T11:18:26;99948.00;;;4.25;100.00
13348;BME280;6743;49.934;9.138;2022-11-20T11:20:57;99942.63;;;4.27;100.00
13348;BME280;6743;49.934;9.138;2022-11-20T11:23:30;99947.87;;;4.27;100.00
13348;BME280;6743;49.934;9.138;2022-11-20T11:25:59;99942.34;;;4.30;100.00
13348;BME280;6743;49.934;9.138;2022-11-20T11:28:26;99944.84;;;4.31;100.00
13348;BME280;6743;49.934;9.138;2022-11-20T11:30:54;99930.50;;;4.35;100.00
13348;BME280;6743;49.934;9.138;2022-11-20T11:33:22;99928.41;;;4.39;100.00
13348;BME280;6743;49.934;9.138;2022-11-20T11:35:49;99927.34;;;4.42;100.00
13348;BME280;6743;49.934;9.138;2022-11-20T11:38:22;99921.94;;;4.43;100.00
13348;BME280;6743;49.934;9.138;2022-11-20T11:40:53;99916.41;;;4.46;100.00
13348;BME280;6743;49.934;9.138;2022-11-20T11:43:22;99905.78;;;4.48;100.00
13348;BME280;6743;49.934;9.138;2022-11-20T11:46:27;99898.56;;;4.50;100.00
13348;BME280;6743;49.934;9.138;2022-11-20T11:48:57;99896.66;;;4.52;100.00
13348;BME280;6743;49.934;9.138;2022-11-20T11:51:26;99904.53;;;4.52;100.00
13348;BME280;6743;49.934;9.138;2022-11-20T11:53:55;99908.84;;;4.53;100.00
13348;BME280;6743;49.934;9.138;2022-11-20T11:56:23;99909.53;;;4.55;100.00
13348;BME280;6743;49.934;9.138;2022-11-20T11:58:51;99900.00;;;4.54;100.00
13348;BME280;6743;49.934;9.138;2022-11-20T12:01:25;99901.66;;;4.55;100.00
13348;BME280;6743;49.934;9.138;2022-11-20T12:04:00;99903.72;;;4.51;100.00
13348;BME280;6743;49.934;9.138;2022-11-20T12:06:30;99907.28;;;4.50;100.00
13348;BME280;6743;49.934;9.138;2022-11-20T12:09:02;99911.59;;;4.51;100.00
13348;BME280;6743;49.934;9.138;2022-11-20T12:11:32;99905.38;;;4.52;100.00
13348;BME280;6743;49.934;9.138;2022-11-20T12:14:02;99907.88;;;4.54;100.00
13348;BME280;6743;49.934;9.138;2022-11-20T12:16:33;99907.75;;;4.55;100.00
13348;BME280;6743;49.934;9.138;2022-11-20T12:19:01;99899.16;;;4.53;100.00
13348;BME280;6743;49.934;9.138;2022-11-20T12:21:32;99904.41;;;4.53;100.00
13348;BME280;6743;49.934;9.138;2022-11-20T12:24:11;99910.37;;;4.55;100.00
13348;BME280;6743;49.934;9.138;2022-11-20T12:26:57;99917.28;;;4.56;100.00
13348;BME280;6743;49.934;9.138;2022-11-20T12:29:36;99901.37;;;4.58;100.00
13348;BME280;6743;49.934;9.138;2022-11-20T12:32:24;99900.41;;;4.59;100.00
13348;BME280;6743;49.934;9.138;2022-11-20T12:35:01;99897.38;;;4.63;100.00
13348;BME280;6743;49.934;9.138;2022-11-20T12:37:38;99894.47;;;4.66;100.00
13348;BME280;6743;49.934;9.138;2022-11-20T12:40:22;99887.97;;;4.70;100.00
13348;BME280;6743;49.934;9.138;2022-11-20T12:43:01;99885.09;;;4.73;100.00
13348;BME280;6743;49.934;9.138;2022-11-20T12:46:04;99880.41;;;4.77;100.00
13348;BME280;6743;49.934;9.138;2022-11-20T12:48:42;99880.25;;;4.79;100.00
13348;BME280;6743;49.934;9.138;2022-11-20T12:54:33;99883.97;;;4.86;100.00
13348;BME280;6743;49.934;9.138;2022-11-20T12:57:06;99880.97;;;4.90;100.00
13348;BME280;6743;49.934;9.138;2022-11-20T12:59:56;99871.69;;;4.96;100.00
13348;BME280;6743;49.934;9.138;2022-11-20T13:02:33;99875.81;;;4.98;100.00
13348;BME280;6743;49.934;9.138;2022-11-20T13:05:18;99865.16;;;5.00;100.00
13348;BME280;6743;49.934;9.138;2022-11-20T13:07:46;99865.16;;;5.00;100.00
13348;BME280;6743;49.934;9.138;2022-11-20T13:10:18;99866.97;;;4.99;100.00
13348;BME280;6743;49.934;9.138;2022-11-20T13:12:51;99864.34;;;4.99;100.00
13348;BME280;6743;49.934;9.138;2022-11-20T13:15:31;99865.16;;;5.00;100.00
13348;BME280;6743;49.934;9.138;2022-11-20T13:18:01;99867.81;;;5.00;100.00
13348;BME280;6743;49.934;9.138;2022-11-20T13:20:29;99861.72;;;4.99;100.00
13348;BME280;6743;49.934;9.138;2022-11-20T13:22:56;99851.19;;;4.99;100.00
13348;BME280;6743;49.934;9.138;2022-11-20T13:25:24;99844.16;;;5.00;100.00